Aviation Digital Data Service (ADDS)

Output produced by METARs form (1607 UTC 19 October 2017)
found at http://www.aviationweather.gov/adds/metars/
 
METAR text: LRCV 191600Z 19005KT CAVOK 20/09 Q1016
Conditions at: LRCV (CRAIOVA , RO) observed 1600 UTC 19 October 2017
Temperature: 20.0°C (68°F)
Dewpoint: 9.0°C (48°F) [RH = 49%]
Pressure (altimeter): 30.00 inches Hg (1016.0 mb)
Winds: from the S (190 degrees) at 6 MPH (5 knots; 2.6 m/s)
Visibility: 6 or more miles (10+ km)
Ceiling: ceiling and visibility are OK
Clouds: unknown
Weather: no significant weather observed at this time

Forecast for: LRCV (CRAIOVA , RO)
Text: TAF LRCV 191400Z 1915/1924 VRB03KT CAVOK
Forecast period: 1500 UTC 19 October 2017 to 0000 UTC 20 October 2017
Forecast type: FROM: standard forecast or significant change
Winds: variable direction winds at 3 MPH (3 knots; 1.6 m/s)
Visibility: 6 or more miles (10+ km)
Clouds: not forecast
Weather: NSW  (no significant weather)